Time;durP1;ratioP1;P1;durP2;ratioP2;P2;SDS_P1;SDS_P2;PMS_P1;PMS_P2;Temp;Humidity;BMP_temperature;BMP_pressure;BME280_temperature;BME280_humidity;BME280_pressure;Samples;Min_cycle;Max_cycle;Signal;HPM_P1;HPM_P2
2021/10/30 00:00:15;;;;;;;40.90;26.70;;;;;;;6.97;100.00;98692.06;5009989;28;20419;-56
2021/10/30 00:02:41;;;;;;;37.37;24.53;;;;;;;6.87;100.00;98690.44;5016117;28;20475;-54
2021/10/30 00:05:09;;;;;;;40.30;27.37;;;;;;;6.81;100.00;98691.28;5014158;28;20427;-55
2021/10/30 00:07:35;;;;;;;40.37;27.50;;;;;;;6.73;100.00;98687.06;5008143;28;20038;-52
2021/10/30 00:10:02;;;;;;;44.13;27.60;;;;;;;6.70;100.00;98697.28;5002513;28;20038;-54
2021/10/30 00:12:27;;;;;;;42.67;27.00;;;;;;;6.61;100.00;98697.28;5014115;28;20061;-56
2021/10/30 00:14:52;;;;;;;41.03;26.90;;;;;;;6.57;100.00;98699.00;5009552;28;20136;-52
2021/10/30 00:17:18;;;;;;;38.67;27.33;;;;;;;6.53;100.00;98699.00;5015686;28;20056;-52
2021/10/30 00:19:43;;;;;;;41.23;27.23;;;;;;;6.50;100.00;98694.75;5014674;28;20032;-56
2021/10/30 00:22:09;;;;;;;38.23;26.07;;;;;;;6.47;100.00;98691.38;5005614;28;20451;-55
2021/10/30 00:24:35;;;;;;;41.17;26.83;;;;;;;6.36;100.00;98694.78;5005940;28;20107;-53
2021/10/30 00:27:02;;;;;;;43.47;25.93;;;;;;;6.35;100.00;98697.31;5016479;28;20041;-55
2021/10/30 00:29:28;;;;;;;41.93;28.33;;;;;;;6.22;100.00;98696.50;5009338;28;20422;-53
2021/10/30 00:31:55;;;;;;;41.87;26.50;;;;;;;6.15;100.00;98687.19;5008184;28;20145;-55
2021/10/30 00:34:21;;;;;;;42.47;28.37;;;;;;;6.06;100.00;98688.88;5012647;28;20386;-57
2021/10/30 00:36:46;;;;;;;38.30;25.93;;;;;;;5.98;100.00;98696.50;5010060;28;20387;-56
2021/10/30 00:39:12;;;;;;;43.20;28.60;;;;;;;5.93;100.00;98695.66;5009809;28;20272;-56
2021/10/30 00:41:37;;;;;;;45.53;28.60;;;;;;;5.92;100.00;98697.34;5008067;28;20135;-57
2021/10/30 00:44:10;;;;;;;45.93;28.03;;;;;;;5.97;100.00;98702.44;5017254;28;20030;-53
2021/10/30 00:46:39;;;;;;;43.60;27.77;;;;;;;5.93;100.00;98708.38;5013572;28;20487;-56
2021/10/30 00:49:05;;;;;;;45.13;29.20;;;;;;;5.90;100.00;98711.75;5005916;28;20553;-53
2021/10/30 00:51:35;;;;;;;44.27;29.23;;;;;;;5.91;100.00;98710.06;5009694;28;20034;-57
2021/10/30 00:54:02;;;;;;;41.53;27.07;;;;;;;5.82;100.00;98710.84;5008433;28;20041;-56
2021/10/30 00:56:29;;;;;;;46.63;30.27;;;;;;;5.80;100.00;98709.19;5007851;28;20141;-53
2021/10/30 00:58:57;;;;;;;50.40;30.90;;;;;;;5.79;100.00;98707.47;5007620;28;20037;-55
2021/10/30 01:01:23;;;;;;;45.00;28.73;;;;;;;5.82;100.00;98710.00;5002438;28;20042;-57
2021/10/30 01:03:50;;;;;;;48.50;30.43;;;;;;;5.83;100.00;98701.53;5013332;28;20113;-57
2021/10/30 01:06:16;;;;;;;43.57;28.27;;;;;;;5.76;100.00;98695.59;5009378;28;20030;-57
2021/10/30 01:08:41;;;;;;;43.83;29.17;;;;;;;5.73;100.00;98699.84;5008914;28;20040;-59
2021/10/30 01:11:07;;;;;;;47.00;29.10;;;;;;;5.69;100.00;98691.34;5006816;28;20030;-57
2021/10/30 01:13:33;;;;;;;43.97;30.10;;;;;;;5.64;100.00;98690.50;5014673;28;20059;-57
2021/10/30 01:15:59;;;;;;;49.07;30.77;;;;;;;5.66;100.00;98696.44;4999769;28;20091;-55
2021/10/30 01:18:24;;;;;;;48.40;32.43;;;;;;;5.62;100.00;98701.50;5010146;28;20029;-57
2021/10/30 01:20:52;;;;;;;48.67;30.83;;;;;;;5.52;100.00;98693.84;5014236;28;20530;-59
2021/10/30 01:23:17;;;;;;;52.03;31.53;;;;;;;5.47;100.00;98685.38;5012298;28;20053;-57
2021/10/30 01:25:45;;;;;;;48.97;31.40;;;;;;;5.57;100.00;98686.25;5007571;28;20503;-59
2021/10/30 01:28:11;;;;;;;47.37;32.27;;;;;;;5.50;100.00;98682.00;5004030;28;20040;-57
2021/10/30 01:30:36;;;;;;;47.87;32.57;;;;;;;5.37;100.00;98685.34;5009061;28;20384;-56
2021/10/30 01:33:05;;;;;;;55.00;32.77;;;;;;;5.26;100.00;98694.66;5012505;28;20420;-58
2021/10/30 01:35:38;;;;;;;50.17;31.77;;;;;;;5.21;100.00;98687.03;5015276;28;20403;-56
2021/10/30 01:38:05;;;;;;;54.30;36.30;;;;;;;5.17;100.00;98694.63;5004311;28;20472;-56
2021/10/30 01:40:38;;;;;;;51.67;31.87;;;;;;;5.07;100.00;98693.72;5006943;28;20594;-58
2021/10/30 01:43:03;;;;;;;53.23;32.50;;;;;;;4.89;100.00;98679.25;5009346;28;20034;-56
2021/10/30 01:45:30;;;;;;;53.90;33.40;;;;;;;4.87;100.00;98685.19;5009295;28;20045;-56
2021/10/30 01:47:57;;;;;;;53.03;34.50;;;;;;;4.73;100.00;98680.03;5005136;28;20041;-55
2021/10/30 01:50:23;;;;;;;49.10;30.83;;;;;;;4.58;100.00;98678.25;5012599;28;20029;-56
2021/10/30 01:52:49;;;;;;;51.57;32.50;;;;;;;4.51;100.00;98684.16;5011921;28;20022;-56
2021/10/30 01:55:18;;;;;;;49.60;31.07;;;;;;;4.45;100.00;98684.13;5003049;28;20034;-59
2021/10/30 01:57:44;;;;;;;58.50;33.87;;;;;;;4.38;100.00;98691.69;5009160;28;20129;-58
2021/10/30 02:00:10;;;;;;;58.13;34.50;;;;;;;4.36;100.00;98681.53;5010427;28;20492;-56
2021/10/30 02:02:36;;;;;;;58.50;36.47;;;;;;;4.34;100.00;98688.28;5012852;28;20027;-57
2021/10/30 02:05:02;;;;;;;57.67;35.17;;;;;;;4.40;100.00;98683.25;5005765;28;20539;-58
2021/10/30 02:07:27;;;;;;;57.40;33.57;;;;;;;4.32;100.00;98674.75;5004044;28;20026;-58
2021/10/30 02:09:53;;;;;;;58.40;35.40;;;;;;;4.30;100.00;98681.47;5017653;28;20052;-55
2021/10/30 02:12:19;;;;;;;55.03;34.00;;;;;;;4.18;100.00;98667.88;5013782;28;20043;-55
2021/10/30 02:14:45;;;;;;;56.63;35.53;;;;;;;4.19;100.00;98675.50;5005582;28;20465;-58
2021/10/30 02:17:10;;;;;;;56.97;36.70;;;;;;;4.17;100.00;98679.69;5005091;28;20026;-56
2021/10/30 02:19:36;;;;;;;57.03;35.33;;;;;;;4.15;100.00;98668.72;5013763;28;20029;-57
2021/10/30 02:22:01;;;;;;;65.17;37.20;;;;;;;4.12;100.00;98677.13;5010306;28;20045;-58
2021/10/30 02:24:27;;;;;;;64.17;39.03;;;;;;;4.12;100.00;98673.72;5010423;28;20030;-57
2021/10/30 02:26:52;;;;;;;59.23;39.33;;;;;;;4.11;100.00;98674.59;5010679;28;20133;-57
2021/10/30 02:29:19;;;;;;;67.20;38.77;;;;;;;4.13;100.00;98671.22;5010640;28;20099;-55
2021/10/30 02:31:44;;;;;;;66.90;38.70;;;;;;;4.11;100.00;98665.31;5007273;28;20037;-56
2021/10/30 02:34:09;;;;;;;62.57;38.17;;;;;;;3.96;100.00;98662.63;5003713;28;20505;-57
2021/10/30 02:36:35;;;;;;;67.50;40.40;;;;;;;3.90;100.00;98666.81;5006642;28;20388;-55
2021/10/30 02:39:00;;;;;;;59.43;37.70;;;;;;;3.80;100.00;98670.97;5005101;28;20449;-55
2021/10/30 02:41:26;;;;;;;65.40;37.33;;;;;;;3.70;100.00;98664.09;5008534;28;20026;-56
2021/10/30 02:43:52;;;;;;;68.67;40.83;;;;;;;3.58;100.00;98657.25;5003124;28;20034;-55
2021/10/30 02:46:17;;;;;;;65.97;38.70;;;;;;;3.52;100.00;98649.56;5002836;28;20057;-53
2021/10/30 02:48:43;;;;;;;62.70;37.87;;;;;;;3.47;100.00;98660.53;5005104;28;20044;-56
2021/10/30 02:51:08;;;;;;;64.33;38.50;;;;;;;3.42;100.00;98657.94;5001611;28;20516;-54
2021/10/30 02:53:34;;;;;;;64.40;38.37;;;;;;;3.35;100.00;98656.19;5003828;28;20049;-54
2021/10/30 02:55:59;;;;;;;69.63;40.73;;;;;;;3.38;100.00;98655.38;5008595;28;20045;-54
2021/10/30 02:58:25;;;;;;;64.20;38.87;;;;;;;3.30;100.00;98667.97;5016425;28;20028;-57
2021/10/30 03:00:50;;;;;;;66.17;39.63;;;;;;;3.19;100.00;98655.19;5011415;28;20040;-58
2021/10/30 03:03:15;;;;;;;74.40;41.97;;;;;;;3.27;100.00;98664.56;5006137;28;20145;-58
2021/10/30 03:05:41;;;;;;;81.63;46.93;;;;;;;3.44;100.00;98651.19;5010837;28;20049;-57
2021/10/30 03:08:06;;;;;;;79.07;42.27;;;;;;;3.34;100.00;98659.56;5011055;28;20128;-57
2021/10/30 03:10:32;;;;;;;68.20;38.70;;;;;;;3.25;100.00;98658.59;5010664;28;20451;-57
2021/10/30 03:12:57;;;;;;;70.67;39.47;;;;;;;3.16;100.00;98652.63;5006089;28;20026;-56
2021/10/30 03:15:23;;;;;;;71.23;40.60;;;;;;;3.07;100.00;98657.59;5011963;28;20074;-56
2021/10/30 03:17:49;;;;;;;68.10;39.77;;;;;;;3.03;100.00;98657.53;5016964;28;20940;-57
2021/10/30 03:20:14;;;;;;;65.90;39.93;;;;;;;2.94;100.00;98658.28;5014457;28;20128;-55
2021/10/30 03:22:40;;;;;;;72.27;41.00;;;;;;;2.86;100.00;98652.28;5006391;28;20038;-58
2021/10/30 03:25:06;;;;;;;69.33;40.10;;;;;;;2.78;100.00;98653.88;5006215;28;20054;-56
2021/10/30 03:27:32;;;;;;;65.63;39.03;;;;;;;2.74;100.00;98654.66;5009984;28;20655;-57
2021/10/30 03:29:57;;;;;;;71.97;39.23;;;;;;;2.64;100.00;98652.84;5013455;28;20041;-58
2021/10/30 03:32:22;;;;;;;74.83;39.60;;;;;;;2.61;100.00;98655.34;5010916;28;20132;-58
2021/10/30 03:34:48;;;;;;;67.33;38.53;;;;;;;2.51;100.00;98648.44;5011451;28;20030;-57
2021/10/30 03:37:13;;;;;;;73.40;42.57;;;;;;;2.53;100.00;98656.91;5002094;28;20493;-58
2021/10/30 03:39:39;;;;;;;72.17;39.67;;;;;;;2.50;100.00;98650.16;5005622;28;20048;-58
2021/10/30 03:42:05;;;;;;;65.57;40.17;;;;;;;2.48;100.00;98658.53;5017525;28;20510;-56
2021/10/30 03:44:31;;;;;;;70.73;41.73;;;;;;;2.39;100.00;98650.81;5013727;28;20095;-58
2021/10/30 03:46:56;;;;;;;71.37;38.97;;;;;;;2.38;100.00;98654.19;5009077;28;20029;-59
2021/10/30 03:49:22;;;;;;;64.30;39.87;;;;;;;2.37;100.00;98648.28;5003705;28;20114;-57
2021/10/30 03:51:47;;;;;;;72.80;42.00;;;;;;;2.43;100.00;98648.34;5010702;28;20045;-56
2021/10/30 03:54:12;;;;;;;70.43;40.97;;;;;;;2.37;100.00;98644.91;5013028;28;20484;-59
2021/10/30 03:56:38;;;;;;;66.27;39.20;;;;;;;2.31;100.00;98648.19;5008105;28;20061;-57
2021/10/30 03:59:03;;;;;;;68.90;37.00;;;;;;;2.27;100.00;98636.34;5006821;28;20053;-56
2021/10/30 04:01:29;;;;;;;65.27;36.97;;;;;;;2.23;100.00;98642.19;5008377;28;20044;-53
2021/10/30 04:03:54;;;;;;;67.43;38.87;;;;;;;2.17;100.00;98632.81;5018573;28;20026;-57
2021/10/30 04:06:20;;;;;;;61.30;37.07;;;;;;;2.18;100.00;98639.59;5010704;28;20079;-57
2021/10/30 04:08:45;;;;;;;65.47;39.10;;;;;;;2.14;100.00;98635.31;5008279;28;20085;-57
2021/10/30 04:11:11;;;;;;;67.77;40.70;;;;;;;2.10;100.00;98635.25;5011917;28;20043;-57
2021/10/30 04:13:36;;;;;;;67.43;36.83;;;;;;;2.13;100.00;98627.69;5015614;28;20030;-58
2021/10/30 04:16:02;;;;;;;65.53;37.60;;;;;;;2.15;100.00;98636.16;5001797;28;20041;-57
2021/10/30 04:18:27;;;;;;;69.57;38.80;;;;;;;2.18;100.00;98636.19;5009936;28;20139;-57
2021/10/30 04:20:53;;;;;;;66.77;38.20;;;;;;;2.15;100.00;98631.97;5013532;28;20048;-56
2021/10/30 04:23:18;;;;;;;68.30;37.40;;;;;;;2.09;100.00;98634.38;5018909;28;20432;-55
2021/10/30 04:25:44;;;;;;;73.80;42.60;;;;;;;2.09;100.00;98631.84;5009513;28;20038;-57
2021/10/30 04:28:10;;;;;;;70.73;41.97;;;;;;;2.06;100.00;98628.44;5008774;28;20030;-57
2021/10/30 04:30:36;;;;;;;69.63;37.77;;;;;;;2.06;100.00;98634.34;5007901;28;20030;-56
2021/10/30 04:33:01;;;;;;;71.07;39.60;;;;;;;2.06;100.00;98636.03;5021106;28;20375;-55
2021/10/30 04:35:27;;;;;;;73.93;39.90;;;;;;;2.02;100.00;98639.34;5010873;28;20041;-54
2021/10/30 04:37:52;;;;;;;77.20;41.07;;;;;;;2.14;100.00;98645.44;5003435;28;20025;-58
2021/10/30 04:40:18;;;;;;;81.80;45.57;;;;;;;2.27;100.00;98643.91;5008816;28;20034;-58
2021/10/30 04:42:43;;;;;;;83.83;45.37;;;;;;;2.36;100.00;98650.78;5010394;28;20839;-54
2021/10/30 04:45:09;;;;;;;85.80;47.07;;;;;;;2.44;100.00;98646.69;5005689;28;20042;-57
2021/10/30 04:47:35;;;;;;;82.00;44.23;;;;;;;2.39;100.00;98640.69;5011885;28;20099;-58
2021/10/30 04:50:01;;;;;;;80.53;46.27;;;;;;;2.35;100.00;98652.47;5011854;28;20033;-57
2021/10/30 04:52:27;;;;;;;74.97;44.83;;;;;;;2.30;100.00;98643.94;5015502;28;20033;-57
2021/10/30 04:54:53;;;;;;;82.33;44.60;;;;;;;2.37;100.00;98644.91;5002486;28;20038;-55
2021/10/30 04:57:19;;;;;;;78.83;47.50;;;;;;;2.35;100.00;98642.34;5008825;28;20508;-57
2021/10/30 04:59:44;;;;;;;99.10;52.30;;;;;;;2.55;100.00;98648.50;5012932;28;20029;-57
2021/10/30 05:02:09;;;;;;;94.03;51.53;;;;;;;2.63;100.00;98649.44;5015430;28;20450;-56
2021/10/30 05:04:35;;;;;;;96.50;51.07;;;;;;;2.65;100.00;98655.41;5013827;28;20408;-58
2021/10/30 05:07:00;;;;;;;100.20;53.37;;;;;;;2.64;100.00;98648.63;5002288;28;20101;-56
2021/10/30 05:09:26;;;;;;;97.67;51.50;;;;;;;2.58;100.00;98647.72;5027595;28;20029;-55
2021/10/30 05:11:51;;;;;;;94.53;50.13;;;;;;;2.55;100.00;98656.09;5013637;28;20048;-56
2021/10/30 05:14:17;;;;;;;91.80;50.97;;;;;;;2.54;100.00;98651.91;5014285;28;20037;-55
2021/10/30 05:16:42;;;;;;;93.13;49.23;;;;;;;2.52;100.00;98655.22;5006705;28;20030;-55
2021/10/30 05:19:07;;;;;;;92.60;51.33;;;;;;;2.51;100.00;98650.97;5004197;28;20038;-56
2021/10/30 05:21:33;;;;;;;102.60;55.40;;;;;;;2.51;100.00;98654.34;5004873;28;20032;-55
2021/10/30 05:23:59;;;;;;;100.40;51.30;;;;;;;2.56;100.00;98654.41;5009322;28;20473;-57
2021/10/30 05:26:24;;;;;;;95.43;48.97;;;;;;;2.50;100.00;98655.22;5009335;28;20033;-57
2021/10/30 05:28:52;;;;;;;95.50;49.77;;;;;;;2.43;100.00;98645.81;5013126;28;20220;-58
2021/10/30 05:31:18;;;;;;;97.33;50.70;;;;;;;2.39;100.00;98654.19;5005008;28;20037;-53
2021/10/30 05:33:43;;;;;;;106.67;54.17;;;;;;;2.57;100.00;98643.47;4999229;28;20025;-57
2021/10/30 05:36:10;;;;;;;94.03;50.20;;;;;;;2.54;100.00;98635.84;5007288;28;20057;-56
2021/10/30 05:38:42;;;;;;;94.83;50.93;;;;;;;2.51;100.00;98636.66;5018784;28;20444;-57
2021/10/30 05:41:08;;;;;;;110.97;58.07;;;;;;;2.53;100.00;98644.28;5007541;28;20628;-55
2021/10/30 05:43:36;;;;;;;92.63;49.93;;;;;;;2.54;100.00;98645.97;5007206;28;20061;-57
2021/10/30 05:46:01;;;;;;;97.67;52.60;;;;;;;2.49;100.00;98656.03;5002517;28;20559;-57
2021/10/30 05:48:28;;;;;;;99.20;52.80;;;;;;;2.49;100.00;98656.03;5009540;28;20033;-54
2021/10/30 05:50:53;;;;;;;93.17;51.33;;;;;;;2.47;100.00;98652.63;5008618;28;20369;-58
2021/10/30 05:53:19;;;;;;;102.73;54.50;;;;;;;2.50;100.00;98654.34;5011736;28;20086;-57
2021/10/30 05:55:44;;;;;;;93.77;50.87;;;;;;;2.49;100.00;98658.56;5012955;28;20030;-58
2021/10/30 05:58:10;;;;;;;99.27;50.47;;;;;;;2.50;100.00;98659.41;5025396;28;20196;-57
2021/10/30 06:00:35;;;;;;;104.77;54.27;;;;;;;2.54;100.00;98664.53;5000748;28;20037;-56
2021/10/30 06:03:01;;;;;;;95.10;51.33;;;;;;;2.55;100.00;98665.38;5008302;28;20113;-58
2021/10/30 06:05:26;;;;;;;95.33;52.57;;;;;;;2.58;100.00;98658.69;5013091;28;20030;-58
2021/10/30 06:07:52;;;;;;;97.90;52.93;;;;;;;2.59;100.00;98664.59;5012246;28;20030;-54
2021/10/30 06:10:18;;;;;;;95.97;51.37;;;;;;;2.60;100.00;98668.81;5006741;28;20468;-57
2021/10/30 06:12:43;;;;;;;105.63;55.70;;;;;;;2.61;100.00;98668.84;5003165;28;20042;-58
2021/10/30 06:15:10;;;;;;;98.63;50.90;;;;;;;2.64;100.00;98673.09;5009610;28;20037;-58
2021/10/30 06:17:36;;;;;;;103.53;53.73;;;;;;;2.67;100.00;98668.91;5013466;28;20087;-58
2021/10/30 06:20:02;;;;;;;98.07;52.43;;;;;;;2.71;100.00;98675.72;5008625;28;20030;-57
2021/10/30 06:22:28;;;;;;;110.53;52.47;;;;;;;2.75;100.00;98674.09;5006872;28;20079;-57
2021/10/30 06:24:54;;;;;;;103.43;52.50;;;;;;;2.76;100.00;98663.09;5011404;28;20380;-56
2021/10/30 06:27:19;;;;;;;100.03;54.47;;;;;;;2.81;100.00;98669.09;5005135;28;20091;-57
2021/10/30 06:29:44;;;;;;;108.03;55.73;;;;;;;2.89;100.00;98674.22;5008919;28;20033;-57
2021/10/30 06:32:10;;;;;;;102.47;54.03;;;;;;;2.96;100.00;98669.28;5011173;28;20088;-57
2021/10/30 06:34:35;;;;;;;98.57;54.73;;;;;;;3.06;100.00;98670.22;5016818;28;20104;-57
2021/10/30 06:37:01;;;;;;;107.53;56.97;;;;;;;3.16;100.00;98674.56;5015113;28;20026;-58
2021/10/30 06:39:26;;;;;;;107.77;53.53;;;;;;;3.26;100.00;98676.38;5004585;28;20040;-58
2021/10/30 06:41:51;;;;;;;101.23;56.63;;;;;;;3.33;100.00;98673.06;5013535;28;20358;-58
2021/10/30 06:44:19;;;;;;;106.80;56.53;;;;;;;3.45;100.00;98668.09;5012446;28;20038;-59
2021/10/30 06:46:44;;;;;;;107.53;56.43;;;;;;;3.56;100.00;98676.69;5013635;28;20033;-57
2021/10/30 06:49:11;;;;;;;103.00;55.33;;;;;;;3.69;100.00;98672.56;5008202;28;20377;-59
2021/10/30 06:51:40;;;;;;;109.50;55.07;;;;;;;3.81;100.00;98669.28;5007185;28;20409;-56
2021/10/30 06:54:07;;;;;;;108.80;54.33;;;;;;;3.90;100.00;98666.81;5010574;28;20027;-59
2021/10/30 06:56:34;;;;;;;97.20;54.67;;;;;;;4.06;100.00;98666.09;5015119;28;20042;-55
2021/10/30 06:59:01;;;;;;;104.47;56.27;;;;;;;4.19;100.00;98674.66;5012027;28;20045;-57
2021/10/30 07:01:27;;;;;;;101.63;54.70;;;;;;;4.29;100.00;98671.31;5009331;28;20037;-58
2021/10/30 07:03:52;;;;;;;101.13;53.50;;;;;;;4.47;100.00;98663.81;5009948;28;20372;-58
2021/10/30 07:06:18;;;;;;;99.03;56.97;;;;;;;4.61;100.00;98667.28;5005698;28;20347;-59
2021/10/30 07:08:43;;;;;;;93.03;50.90;;;;;;;4.77;100.00;98665.66;5008718;28;20030;-59
2021/10/30 07:11:08;;;;;;;91.47;54.63;;;;;;;4.93;100.00;98665.72;5017625;28;20038;-59
2021/10/30 07:13:34;;;;;;;81.57;50.03;;;;;;;5.09;100.00;98663.25;5017422;28;20575;-58
2021/10/30 07:15:59;;;;;;;93.83;54.47;;;;;;;5.17;100.00;98664.97;5005291;28;20096;-57
2021/10/30 07:18:25;;;;;;;92.50;55.00;;;;;;;5.35;100.00;98659.06;5008590;28;20036;-58
2021/10/30 07:20:50;;;;;;;101.03;62.00;;;;;;;5.48;100.00;98655.72;5010391;28;20085;-57
2021/10/30 07:23:18;;;;;;;87.33;53.03;;;;;;;5.65;100.00;98666.75;5018719;28;20376;-59
2021/10/30 07:25:44;;;;;;;81.77;48.77;;;;;;;5.72;100.00;98663.38;5014576;28;20060;-58
2021/10/30 07:28:09;;;;;;;84.40;48.80;;;;;;;5.75;100.00;98659.97;5008112;28;20412;-60
2021/10/30 07:30:34;;;;;;;82.87;48.80;;;;;;;5.94;100.00;98659.19;5006293;28;20384;-59
2021/10/30 07:33:00;;;;;;;73.67;46.37;;;;;;;6.04;100.00;98653.22;5010026;28;20551;-59
2021/10/30 07:35:25;;;;;;;78.43;47.70;;;;;;;6.05;100.00;98660.03;5006459;28;20034;-58
2021/10/30 07:37:57;;;;;;;76.30;47.27;;;;;;;6.23;100.00;98656.63;5005942;28;20045;-58
2021/10/30 07:40:22;;;;;;;79.57;46.70;;;;;;;6.40;100.00;98647.25;5024394;28;20033;-56
2021/10/30 07:42:48;;;;;;;73.23;46.47;;;;;;;6.46;100.00;98654.00;5009336;28;20092;-59
2021/10/30 07:45:13;;;;;;;72.50;45.10;;;;;;;6.65;100.00;98653.97;5006954;28;20164;-57
2021/10/30 07:47:38;;;;;;;78.80;47.37;;;;;;;6.77;100.00;98653.94;5008112;28;20475;-59
2021/10/30 07:50:05;;;;;;;76.17;45.03;;;;;;;6.92;100.00;98654.72;5008417;28;20117;-59
2021/10/30 07:52:31;;;;;;;77.10;46.30;;;;;;;6.99;100.00;98647.06;5008958;28;20480;-59
2021/10/30 07:54:56;;;;;;;73.03;42.97;;;;;;;7.16;100.00;98652.91;5004892;28;20034;-59
2021/10/30 07:57:22;;;;;;;66.13;42.50;;;;;;;7.33;100.00;98656.22;5004813;28;20053;-58
2021/10/30 07:59:50;;;;;;;71.37;43.87;;;;;;;7.45;100.00;98654.44;5011876;28;20040;-60
2021/10/30 08:02:17;;;;;;;70.20;42.57;;;;;;;7.58;100.00;98646.72;5008435;28;20435;-59
2021/10/30 08:04:43;;;;;;;66.33;40.53;;;;;;;7.70;100.00;98640.66;5006733;28;20030;-59
2021/10/30 08:07:08;;;;;;;69.60;41.70;;;;;;;7.81;100.00;98641.41;5006893;28;20064;-59
2021/10/30 08:09:34;;;;;;;68.60;41.73;;;;;;;7.81;100.00;98639.72;5010998;28;20125;-60
2021/10/30 08:12:00;;;;;;;63.53;37.93;;;;;;;8.07;100.00;98647.16;5021534;28;20500;-59
2021/10/30 08:14:25;;;;;;;63.60;39.70;;;;;;;8.16;100.00;98653.88;5006695;28;20396;-55
2021/10/30 08:16:51;;;;;;;63.90;40.27;;;;;;;8.05;100.00;98659.09;5009415;28;20037;-55
2021/10/30 08:19:16;;;;;;;62.57;41.37;;;;;;;7.87;100.00;98656.69;5008390;28;20065;-59
2021/10/30 08:21:42;;;;;;;64.57;38.03;;;;;;;8.17;100.00;98655.59;5007422;28;20022;-57
2021/10/30 08:24:08;;;;;;;63.77;42.07;;;;;;;8.19;100.00;98651.28;5005718;28;20442;-59
2021/10/30 08:26:35;;;;;;;68.57;43.60;;;;;;;8.19;100.00;98649.59;5008456;28;20026;-59
2021/10/30 08:29:01;;;;;;;69.03;41.50;;;;;;;8.17;100.00;98656.44;5010616;28;20061;-57
2021/10/30 08:31:27;;;;;;;63.00;40.77;;;;;;;8.33;100.00;98643.53;5008794;28;20486;-59
2021/10/30 08:33:54;;;;;;;66.03;39.37;;;;;;;8.60;100.00;98648.38;5007424;28;20102;-59
2021/10/30 08:36:21;;;;;;;64.50;40.80;;;;;;;8.79;100.00;98644.75;5008498;28;20034;-57
2021/10/30 08:38:46;;;;;;;63.43;39.73;;;;;;;8.60;100.00;98651.78;5008070;28;20033;-55
2021/10/30 08:41:12;;;;;;;60.63;37.97;;;;;;;8.80;100.00;98637.91;5005377;28;20285;-57
2021/10/30 08:43:37;;;;;;;59.40;38.17;;;;;;;9.08;100.00;98641.84;5008585;28;20045;-59
2021/10/30 08:46:04;;;;;;;59.37;38.20;;;;;;;9.35;100.00;98638.06;5009749;28;20040;-56
2021/10/30 08:48:31;;;;;;;59.97;38.43;;;;;;;9.52;100.00;98630.97;5009031;28;20064;-57
2021/10/30 08:50:58;;;;;;;57.93;38.67;;;;;;;9.78;100.00;98622.91;5008310;28;20037;-61
2021/10/30 08:53:24;;;;;;;60.20;36.53;;;;;;;9.97;100.00;98627.69;5007920;28;20037;-59
2021/10/30 08:55:51;;;;;;;65.37;38.10;;;;;;;10.21;100.00;98616.22;5008385;28;20368;-59
2021/10/30 08:58:17;;;;;;;56.33;35.22;;;;;;;10.49;100.00;98626.81;5007614;28;20056;-59
2021/10/30 09:00:50;;;;;;;54.57;36.60;;;;;;;10.60;100.00;98626.63;5006386;28;20034;-58
2021/10/30 09:03:21;;;;;;;53.20;34.83;;;;;;;10.82;100.00;98623.59;5004600;28;20040;-58
2021/10/30 09:05:50;;;;;;;49.35;35.25;;;;;;;10.83;100.00;98614.19;5005345;28;20062;-58
2021/10/30 09:08:23;;;;;;;53.00;35.38;;;;;;;10.98;100.00;98616.44;5007839;28;20055;-59
2021/10/30 09:10:51;;;;;;;47.45;32.75;;;;;;;11.11;100.00;98602.47;5004211;28;20489;-59
2021/10/30 09:13:21;;;;;;;50.67;34.60;;;;;;;11.21;100.00;98608.22;5005295;28;20021;-59
2021/10/30 09:15:49;;;;;;;52.53;34.35;;;;;;;11.35;100.00;98608.78;5003350;28;20046;-58
2021/10/30 09:18:24;;;;;;;51.75;36.85;;;;;;;11.46;100.00;98604.25;5006531;28;20092;-59
2021/10/30 09:20:52;;;;;;;48.45;33.47;;;;;;;11.61;100.00;98601.34;5005378;28;20582;-60
2021/10/30 09:23:20;;;;;;;48.88;33.10;;;;;;;11.64;100.00;98606.38;5004881;28;20572;-58
2021/10/30 09:25:56;;;;;;;48.15;33.67;;;;;;;11.73;100.00;98613.91;5007176;28;20365;-59
2021/10/30 09:28:24;;;;;;;49.30;33.00;;;;;;;11.65;98.34;98604.66;5004215;28;20038;-58
2021/10/30 09:31:07;;;;;;;46.53;32.15;;;;;;;11.68;99.64;98602.88;5003800;28;20046;-58
2021/10/30 09:33:36;;;;;;;45.70;32.78;;;;;;;11.60;100.00;98604.78;5004768;28;20119;-58
2021/10/30 09:36:10;;;;;;;47.35;33.53;;;;;;;11.79;95.98;98597.53;5007858;28;20124;-57
2021/10/30 09:38:38;;;;;;;47.08;32.15;;;;;;;11.79;95.58;98597.53;5007014;28;20053;-58
2021/10/30 09:41:18;;;;;;;42.30;30.80;;;;;;;11.81;94.48;98588.03;5002314;28;20152;-59
2021/10/30 09:43:59;;;;;;;43.15;30.23;;;;;;;12.03;93.83;98588.34;5004308;28;20539;-59
2021/10/30 09:46:27;;;;;;;50.15;31.25;;;;;;;12.17;93.09;98578.56;5003130;28;20042;-57
2021/10/30 09:48:54;;;;;;;45.60;31.73;;;;;;;12.12;93.71;98572.69;5008329;28;20030;-58
2021/10/30 09:51:36;;;;;;;44.42;30.45;;;;;;;12.19;93.96;98563.94;5007701;28;20052;-59
2021/10/30 09:54:05;;;;;;;41.83;29.88;;;;;;;12.06;95.92;98570.28;5004377;28;20115;-59
2021/10/30 09:56:49;;;;;;;43.25;30.77;;;;;;;12.28;95.04;98571.41;5005990;28;20046;-59
2021/10/30 09:59:16;;;;;;;43.47;29.63;;;;;;;12.36;92.03;98569.47;5006330;28;20027;-59
2021/10/30 10:01:49;;;;;;;41.50;29.52;;;;;;;12.36;91.55;98566.91;5005350;28;20348;-60
2021/10/30 10:04:16;;;;;;;43.10;31.20;;;;;;;12.06;93.75;98567.69;5003393;28;20061;-57
2021/10/30 10:06:44;;;;;;;49.40;33.53;;;;;;;11.98;94.82;98569.63;5010904;28;20033;-60
2021/10/30 10:09:17;;;;;;;49.42;33.50;;;;;;;12.02;96.42;98568.66;5014706;28;20129;-59
2021/10/30 10:11:44;;;;;;;47.03;32.22;;;;;;;12.22;92.48;98571.59;5009885;28;20133;-59
2021/10/30 10:14:12;;;;;;;48.67;33.45;;;;;;;12.20;92.48;98575.91;5012713;28;20515;-60
2021/10/30 10:16:38;;;;;;;45.55;32.25;;;;;;;12.16;95.20;98575.16;5010625;28;20034;-61
2021/10/30 10:19:03;;;;;;;46.47;33.40;;;;;;;12.08;92.97;98571.09;5014011;28;20034;-60
2021/10/30 10:21:33;;;;;;;46.10;33.00;;;;;;;12.13;93.09;98567.53;5013085;28;20507;-60
2021/10/30 10:24:00;;;;;;;50.53;33.83;;;;;;;12.15;92.63;98567.47;5012756;28;20034;-60
2021/10/30 10:26:33;;;;;;;47.58;33.78;;;;;;;12.15;93.50;98562.31;5013328;28;20065;-59
2021/10/30 10:29:05;;;;;;;47.10;33.00;;;;;;;12.25;93.80;98553.50;5015898;28;20026;-59
2021/10/30 10:31:30;;;;;;;52.70;35.45;;;;;;;12.08;95.24;98548.81;5010688;28;20036;-57
2021/10/30 10:34:13;;;;;;;50.97;35.35;;;;;;;12.34;92.85;98548.13;5014552;28;20041;-58
2021/10/30 10:36:42;;;;;;;50.58;34.40;;;;;;;12.30;94.02;98543.94;5013734;28;20475;-59
2021/10/30 10:39:30;;;;;;;51.80;34.92;;;;;;;12.33;93.33;98542.13;5013044;28;20578;-59
2021/10/30 10:41:57;;;;;;;49.28;34.13;;;;;;;12.24;94.76;98528.66;5009666;28;20055;-57
2021/10/30 10:44:22;;;;;;;51.65;35.20;;;;;;;12.25;94.15;98523.50;5013673;28;20040;-57
2021/10/30 10:46:49;;;;;;;54.03;34.47;;;;;;;12.50;92.39;98522.81;5013464;28;20038;-58
2021/10/30 10:49:20;;;;;;;52.65;33.60;;;;;;;12.55;91.67;98514.09;5012639;28;20450;-59
2021/10/30 10:52:10;;;;;;;53.03;34.30;;;;;;;12.66;90.91;98508.63;5011326;28;20042;-59
2021/10/30 10:54:54;;;;;;;41.22;30.42;;;;;;;12.89;88.50;98493.34;5009894;28;20113;-59
2021/10/30 10:57:30;;;;;;;33.78;23.17;;;;;;;13.22;79.58;98494.91;5013227;28;20473;-57
2021/10/30 11:00:00;;;;;;;34.35;23.02;;;;;;;13.56;74.20;98486.09;5010587;28;20107;-59
2021/10/30 11:02:31;;;;;;;29.88;21.70;;;;;;;13.78;71.15;98492.19;5012825;28;20119;-56
2021/10/30 11:05:08;;;;;;;30.10;21.65;;;;;;;13.97;68.70;98480.34;5013449;28;20039;-60
2021/10/30 11:07:59;;;;;;;28.95;21.02;;;;;;;14.17;66.17;98466.78;5010619;28;20486;-58
2021/10/30 11:10:26;;;;;;;28.80;21.92;;;;;;;14.24;66.36;98470.81;5011095;28;20029;-60
2021/10/30 11:13:04;;;;;;;30.63;21.92;;;;;;;14.36;66.05;98467.81;5011187;28;20493;-59
2021/10/30 11:15:52;;;;;;;29.45;20.70;;;;;;;14.51;64.69;98462.06;5015265;28;20544;-58